createdAt,value
2023-02-05T09:31:47.629Z,6.07
2023-02-05T09:34:21.840Z,4.77
2023-02-05T09:36:48.462Z,3.43
2023-02-05T09:39:34.622Z,4.43
2023-02-05T09:42:27.366Z,3.60
2023-02-05T09:45:36.734Z,2.77
2023-02-05T09:48:29.350Z,3.50
2023-02-05T09:50:58.139Z,3.13
2023-02-05T09:53:33.902Z,2.53
2023-02-05T09:56:03.201Z,3.30
2023-02-05T09:58:33.058Z,2.13
2023-02-05T10:01:03.998Z,1.43
2023-02-05T10:03:42.409Z,1.67
2023-02-05T10:06:22.960Z,4.03
2023-02-05T10:09:08.283Z,2.40
2023-02-05T10:11:52.886Z,1.53
2023-02-05T10:14:41.335Z,2.30
2023-02-05T10:17:51.400Z,4.10
2023-02-05T10:20:39.916Z,1.80
2023-02-05T10:23:13.112Z,3.60
2023-02-05T10:25:56.005Z,4.70
2023-02-05T10:28:54.407Z,2.83
2023-02-05T10:31:37.274Z,1.30
2023-02-05T10:34:39.852Z,1.50
2023-02-05T10:37:14.433Z,6.33
2023-02-05T10:39:41.182Z,2.20
2023-02-05T10:42:30.915Z,2.60
2023-02-05T10:45:14.324Z,2.43
2023-02-05T10:47:55.298Z,2.80
2023-02-05T10:50:52.314Z,3.10
2023-02-05T10:53:22.393Z,1.30
2023-02-05T10:55:49.639Z,3.93
2023-02-05T10:58:46.941Z,6.47
2023-02-05T11:01:32.455Z,4.10
2023-02-05T11:04:03.803Z,2.33
2023-02-05T11:06:39.945Z,3.70
2023-02-05T11:09:29.880Z,2.60
2023-02-05T11:12:02.264Z,3.93
2023-02-05T11:14:33.912Z,4.70
2023-02-05T11:17:09.222Z,4.23
2023-02-05T11:19:36.539Z,2.70
2023-02-05T11:22:04.708Z,4.20
2023-02-05T15:45:34.680Z,9.50
2023-02-05T15:48:19.062Z,13.03
2023-02-05T15:50:52.202Z,14.53
2023-02-05T15:53:44.784Z,10.33
